createdAt,value
2022-08-22T00:00:20.962Z,1.60
2022-08-22T00:02:47.882Z,1.37
2022-08-22T00:03:00.231Z,1.90
2022-08-22T00:03:01.342Z,2.08
2022-08-22T00:03:22.576Z,1.87
2022-08-22T00:06:07.531Z,1.80
2022-08-22T00:08:47.869Z,1.60
2022-08-22T00:11:25.739Z,2.30
2022-08-22T00:14:02.153Z,2.03
2022-08-22T00:16:35.965Z,1.50
2022-08-22T00:19:13.141Z,1.70
2022-08-22T00:21:46.558Z,1.60
2022-08-22T00:24:25.574Z,1.73
2022-08-22T00:27:00.588Z,2.08
2022-08-22T00:29:34.326Z,1.92
2022-08-22T00:32:11.197Z,2.30
2022-08-22T00:34:44.495Z,1.92
2022-08-22T00:37:20.944Z,2.03
2022-08-22T00:39:59.460Z,2.10
2022-08-22T00:42:54.260Z,1.95
2022-08-22T00:45:38.499Z,2.22
2022-08-22T00:48:24.654Z,1.60
2022-08-22T00:51:09.241Z,2.12
2022-08-22T00:53:51.744Z,1.80
2022-08-22T00:56:55.327Z,1.75
2022-08-22T00:59:41.152Z,1.60
2022-08-22T01:02:23.791Z,1.80
2022-08-22T01:05:10.753Z,1.85
2022-08-22T01:07:58.098Z,1.80
2022-08-22T01:10:45.925Z,1.50
2022-08-22T01:13:32.312Z,1.83
2022-08-22T01:16:18.350Z,2.05
2022-08-22T01:19:05.894Z,1.70
2022-08-22T01:22:09.856Z,1.90
2022-08-22T01:25:22.459Z,1.77
2022-08-22T01:28:44.870Z,1.98
2022-08-22T01:32:01.478Z,2.05
2022-08-22T01:35:04.402Z,1.50
2022-08-22T01:37:55.910Z,2.10
2022-08-22T01:41:18.585Z,2.10
2022-08-22T01:44:03.163Z,1.50
2022-08-22T01:46:37.746Z,1.80
2022-08-22T01:49:14.315Z,1.85
2022-08-22T01:51:51.122Z,1.55
2022-08-22T01:54:31.885Z,1.83
2022-08-22T01:57:03.009Z,2.22
2022-08-22T01:59:34.686Z,1.55
2022-08-22T02:02:40.926Z,2.05
2022-08-22T02:05:20.140Z,1.73
2022-08-22T02:07:58.384Z,2.00
2022-08-22T02:10:44.509Z,2.45
2022-08-22T02:13:30.733Z,2.22
2022-08-22T02:16:09.362Z,2.28
2022-08-22T02:18:54.659Z,2.62
2022-08-22T02:21:30.380Z,1.75
2022-08-22T02:24:03.980Z,2.28
2022-08-22T02:26:44.764Z,2.25
2022-08-22T02:29:17.145Z,1.87
2022-08-22T02:31:54.417Z,2.33
2022-08-22T02:34:34.006Z,2.22
2022-08-22T02:37:09.395Z,2.50
2022-08-22T02:39:45.265Z,2.42
2022-08-22T02:42:22.347Z,2.30
2022-08-22T02:44:58.897Z,2.42
2022-08-22T02:47:34.035Z,2.25
2022-08-22T02:50:12.964Z,2.72
2022-08-22T02:52:57.311Z,2.12
2022-08-22T02:55:37.238Z,2.20
2022-08-22T02:58:12.189Z,2.60
2022-08-22T03:00:47.332Z,2.45
2022-08-22T03:03:20.229Z,2.30
2022-08-22T03:05:53.086Z,2.30
2022-08-22T03:08:25.457Z,2.40
2022-08-22T03:11:13.612Z,2.97
2022-08-22T03:13:54.160Z,2.62
2022-08-22T03:16:30.442Z,2.53
2022-08-22T03:19:04.470Z,2.97
2022-08-22T03:21:38.063Z,3.50
2022-08-22T03:24:12.876Z,3.72
2022-08-22T03:26:50.372Z,3.08
2022-08-22T03:29:23.386Z,3.60
2022-08-22T03:32:12.458Z,2.85
2022-08-22T03:34:56.108Z,3.40
2022-08-22T03:37:33.124Z,3.20
2022-08-22T03:40:07.837Z,2.95
2022-08-22T03:43:02.840Z,2.80
2022-08-22T03:45:58.232Z,3.58
2022-08-22T03:48:57.038Z,2.70
2022-08-22T03:51:40.378Z,2.17
2022-08-22T03:54:31.746Z,3.00
2022-08-22T03:57:40.698Z,2.30
2022-08-22T04:00:21.187Z,3.15
2022-08-22T04:03:07.309Z,2.80
2022-08-22T04:05:58.145Z,2.67
2022-08-22T04:09:03.847Z,2.80
2022-08-22T04:11:52.900Z,4.37
2022-08-22T04:14:48.572Z,4.90
2022-08-22T04:17:35.711Z,4.03
2022-08-22T04:20:20.892Z,4.20
2022-08-22T04:23:16.620Z,3.25
2022-08-22T04:25:52.467Z,3.78
2022-08-22T04:28:24.529Z,3.60
2022-08-22T04:30:57.316Z,3.70
2022-08-22T04:33:31.526Z,4.57
2022-08-22T04:36:06.043Z,3.62
2022-08-22T04:38:39.980Z,3.75
2022-08-22T04:41:13.271Z,3.70
2022-08-22T04:43:49.533Z,3.53
2022-08-22T04:46:26.269Z,4.15
2022-08-22T04:49:11.865Z,3.92
2022-08-22T04:51:45.384Z,4.40
2022-08-22T04:54:33.849Z,4.37
2022-08-22T04:57:22.511Z,3.62
2022-08-22T04:59:51.347Z,3.67
2022-08-22T05:02:24.251Z,3.97
2022-08-22T05:05:00.286Z,4.30
2022-08-22T05:07:36.011Z,3.80
2022-08-22T05:10:11.625Z,3.87
2022-08-22T05:12:44.336Z,3.67
2022-08-22T05:15:19.163Z,3.55
2022-08-22T05:17:54.253Z,3.72
2022-08-22T05:20:28.596Z,4.57
2022-08-22T05:23:01.125Z,4.07
2022-08-22T05:25:33.598Z,3.87
2022-08-22T05:28:12.037Z,4.45
2022-08-22T05:30:41.236Z,4.05
2022-08-22T05:33:17.827Z,3.08
2022-08-22T05:35:55.852Z,3.58
2022-08-22T05:38:31.463Z,3.33
2022-08-22T05:41:06.382Z,3.47
2022-08-22T05:43:38.907Z,4.20
2022-08-22T05:46:10.549Z,3.50
2022-08-22T05:48:44.526Z,4.50
2022-08-22T05:51:22.042Z,4.75
2022-08-22T05:53:55.033Z,4.15
2022-08-22T05:56:36.002Z,3.65
2022-08-22T05:59:09.418Z,4.32
2022-08-22T06:01:47.270Z,4.62
2022-08-22T06:04:25.508Z,3.90
2022-08-22T06:06:58.139Z,4.65
2022-08-22T06:09:35.384Z,5.43
2022-08-22T06:12:18.245Z,5.53
2022-08-22T06:15:01.222Z,5.82
2022-08-22T06:17:35.675Z,4.82
2022-08-22T06:20:08.527Z,5.78
2022-08-22T06:22:42.296Z,5.53
2022-08-22T06:25:14.715Z,5.80
2022-08-22T06:27:42.654Z,6.00
2022-08-22T06:30:17.950Z,5.30
2022-08-22T06:32:59.920Z,5.40
2022-08-22T06:35:53.679Z,6.05
2022-08-22T06:38:28.476Z,5.60
2022-08-22T06:41:00.551Z,5.50
2022-08-22T06:43:34.151Z,4.75
2022-08-22T06:46:02.690Z,5.37
2022-08-22T06:48:30.961Z,4.95
2022-08-22T06:51:00.216Z,5.05
2022-08-22T06:53:35.943Z,5.62
2022-08-22T06:56:06.346Z,5.20
2022-08-22T06:58:42.554Z,5.03
2022-08-22T07:01:14.865Z,5.62
2022-08-22T07:03:47.923Z,4.95
2022-08-22T07:06:19.184Z,5.32
2022-08-22T07:08:55.002Z,4.60
2022-08-22T07:11:27.562Z,4.65
2022-08-22T07:13:59.272Z,4.82
2022-08-22T07:16:33.754Z,4.53
2022-08-22T07:19:02.882Z,5.00
2022-08-22T07:21:42.721Z,4.95
2022-08-22T07:24:18.711Z,4.68
2022-08-22T07:27:04.802Z,5.18
2022-08-22T07:29:42.927Z,5.18
2022-08-22T07:32:16.180Z,4.40
2022-08-22T07:34:58.790Z,5.15
2022-08-22T07:37:37.504Z,4.45
2022-08-22T07:40:19.966Z,4.75
2022-08-22T07:42:52.604Z,5.22
2022-08-22T07:45:31.972Z,5.12
2022-08-22T07:48:19.785Z,4.62
2022-08-22T07:51:02.110Z,4.97
2022-08-22T07:53:37.216Z,4.47
2022-08-22T07:56:10.630Z,4.28
2022-08-22T07:58:41.962Z,3.72
2022-08-22T08:01:12.327Z,3.65
2022-08-22T08:03:41.298Z,4.30
2022-08-22T08:06:10.311Z,4.15
2022-08-22T08:08:42.186Z,4.30
2022-08-22T08:11:16.002Z,5.25
2022-08-22T08:13:47.773Z,5.40
2022-08-22T08:16:21.221Z,4.55
2022-08-22T08:18:52.576Z,5.40
2022-08-22T08:21:29.134Z,5.07
2022-08-22T08:23:57.719Z,5.53
2022-08-22T08:26:32.990Z,5.53
2022-08-22T08:29:01.366Z,4.57
2022-08-22T08:31:34.119Z,4.95
2022-08-22T08:34:06.293Z,5.37
2022-08-22T08:36:41.545Z,5.22
2022-08-22T08:39:19.854Z,5.00
2022-08-22T08:42:15.078Z,5.25
2022-08-22T08:45:07.380Z,4.00
2022-08-22T08:47:56.636Z,2.28
2022-08-22T08:50:51.361Z,2.70
2022-08-22T08:53:45.281Z,2.83
2022-08-22T08:56:20.083Z,2.03
2022-08-22T08:59:00.198Z,1.95
2022-08-22T09:01:53.317Z,1.80
2022-08-22T09:05:05.584Z,1.98
2022-08-22T09:07:50.815Z,2.20
2022-08-22T09:10:33.996Z,1.55
2022-08-22T09:13:29.015Z,1.90
2022-08-22T09:16:25.944Z,1.62
2022-08-22T09:19:12.932Z,2.00
2022-08-22T09:22:06.195Z,1.90
2022-08-22T09:25:06.073Z,1.50
2022-08-22T09:27:38.247Z,1.52
2022-08-22T09:30:11.936Z,1.60
2022-08-22T09:32:52.151Z,1.40
2022-08-22T09:35:27.882Z,1.10
2022-08-22T09:38:22.152Z,1.10
2022-08-22T09:40:57.728Z,1.00
2022-08-22T09:43:37.612Z,0.90
2022-08-22T09:46:15.647Z,1.00
2022-08-22T09:48:58.270Z,0.90
2022-08-22T09:51:37.433Z,1.12
2022-08-22T09:54:22.884Z,1.00
2022-08-22T09:56:59.322Z,0.60
2022-08-22T09:59:43.554Z,0.70
2022-08-22T10:02:24.119Z,0.90
2022-08-22T10:05:04.121Z,0.82
2022-08-22T10:07:59.491Z,1.10
2022-08-22T10:10:54.740Z,0.70
2022-08-22T10:13:34.218Z,1.00
2022-08-22T10:16:16.621Z,0.70
2022-08-22T10:18:54.723Z,0.80
2022-08-22T10:21:36.317Z,1.00
2022-08-22T10:24:25.492Z,0.85
2022-08-22T10:26:57.402Z,1.05
2022-08-22T10:29:40.657Z,0.85
2022-08-22T10:32:27.145Z,0.90
2022-08-22T10:35:02.802Z,1.33
2022-08-22T10:37:40.592Z,1.23
2022-08-22T10:40:22.956Z,0.95
2022-08-22T10:42:57.604Z,0.90
2022-08-22T10:45:36.034Z,0.80
2022-08-22T10:48:25.640Z,0.70
2022-08-22T10:51:02.602Z,1.73
2022-08-22T10:53:42.836Z,0.75
2022-08-22T10:56:14.985Z,1.20
2022-08-22T10:58:51.294Z,1.27
2022-08-22T11:01:37.886Z,0.90
2022-08-22T11:04:19.709Z,0.85
2022-08-22T11:07:15.471Z,0.80
2022-08-22T11:09:45.137Z,0.80
2022-08-22T11:12:23.294Z,0.80
2022-08-22T11:15:08.484Z,0.93
2022-08-22T11:18:24.123Z,1.00
2022-08-22T11:21:01.727Z,0.90
2022-08-22T11:23:41.953Z,0.90
2022-08-22T11:26:41.379Z,0.93
2022-08-22T11:29:32.882Z,1.10
2022-08-22T11:32:09.022Z,1.12
2022-08-22T11:34:47.951Z,1.33
2022-08-22T11:37:42.783Z,0.82
2022-08-22T11:40:25.909Z,0.95
2022-08-22T11:43:03.151Z,0.95
2022-08-22T11:45:40.055Z,0.75
2022-08-22T11:48:18.206Z,1.25
2022-08-22T11:50:51.222Z,0.90
2022-08-22T11:53:25.427Z,1.10
2022-08-22T11:56:10.349Z,1.00
2022-08-22T11:58:54.758Z,1.50
2022-08-22T12:01:34.371Z,0.90
2022-08-22T12:04:10.255Z,0.80
2022-08-22T12:06:59.084Z,0.77
2022-08-22T12:09:35.893Z,1.10
2022-08-22T12:12:19.899Z,1.00
2022-08-22T12:14:58.790Z,1.27
2022-08-22T12:17:55.960Z,0.90
2022-08-22T12:20:48.894Z,1.02
2022-08-22T12:23:49.699Z,1.10
2022-08-22T12:26:30.504Z,0.80
2022-08-22T12:29:16.795Z,0.95
2022-08-22T12:32:17.410Z,0.60
2022-08-22T12:35:14.038Z,0.90
2022-08-22T12:37:53.063Z,0.90
2022-08-22T12:40:39.756Z,1.00
2022-08-22T12:43:49.536Z,1.00
2022-08-22T12:46:28.900Z,1.10
2022-08-22T12:49:24.028Z,1.00
2022-08-22T12:52:14.407Z,0.93
2022-08-22T12:54:53.837Z,1.20
2022-08-22T12:57:32.978Z,1.15
2022-08-22T13:00:09.452Z,0.75
2022-08-22T13:02:41.687Z,0.85
2022-08-22T13:05:19.533Z,0.80
2022-08-22T13:07:54.525Z,0.88
2022-08-22T13:10:40.337Z,0.82
2022-08-22T13:13:12.790Z,1.27
2022-08-22T13:15:47.217Z,1.00
2022-08-22T13:18:29.722Z,1.08
2022-08-22T13:21:05.061Z,0.75
2022-08-22T13:23:40.024Z,0.90
2022-08-22T13:26:16.454Z,0.88
2022-08-22T13:29:24.742Z,1.00
2022-08-22T13:31:56.240Z,1.00
2022-08-22T13:34:39.440Z,0.80
2022-08-22T13:37:16.223Z,0.77
2022-08-22T13:39:49.120Z,0.98
2022-08-22T13:42:29.806Z,0.90
2022-08-22T13:45:04.588Z,0.98
2022-08-22T13:47:39.445Z,0.80
2022-08-22T13:50:13.897Z,1.00
2022-08-22T13:52:52.251Z,1.00
2022-08-22T13:55:29.553Z,0.98
2022-08-22T13:58:07.478Z,0.80
2022-08-22T14:01:03.752Z,1.02
2022-08-22T14:03:40.377Z,0.90
2022-08-22T14:06:36.814Z,0.90
2022-08-22T14:09:32.065Z,0.88
2022-08-22T14:12:13.615Z,0.88
2022-08-22T14:14:46.358Z,0.80
2022-08-22T14:17:21.065Z,1.23
2022-08-22T14:19:59.453Z,0.80
2022-08-22T14:22:35.391Z,0.88
2022-08-22T14:25:10.279Z,0.60
2022-08-22T14:27:57.765Z,0.73
2022-08-22T14:30:30.162Z,0.80
2022-08-22T14:33:12.662Z,0.75
2022-08-22T14:35:45.279Z,0.80
2022-08-22T14:38:30.463Z,0.80
2022-08-22T14:41:05.272Z,0.80
2022-08-22T14:43:49.592Z,0.70
2022-08-22T14:46:26.732Z,0.88
2022-08-22T14:49:16.083Z,0.47
2022-08-22T14:51:50.909Z,0.70
2022-08-22T14:54:22.333Z,0.90
2022-08-22T14:56:54.962Z,0.90
2022-08-22T14:59:38.442Z,0.60
2022-08-22T15:02:10.894Z,0.90
2022-08-22T15:04:42.659Z,0.80
2022-08-22T15:07:21.090Z,0.93
2022-08-22T15:09:53.901Z,1.15
2022-08-22T15:12:30.640Z,1.00
2022-08-22T15:15:01.814Z,0.82
2022-08-22T15:17:44.104Z,1.10
2022-08-22T15:20:27.683Z,0.93
2022-08-22T15:22:59.540Z,0.88
2022-08-22T15:25:31.652Z,1.00
2022-08-22T15:28:07.803Z,1.10
2022-08-22T15:30:45.201Z,0.62
2022-08-22T15:33:19.080Z,0.80
2022-08-22T15:35:48.930Z,0.75
2022-08-22T15:38:30.334Z,0.73
2022-08-22T15:41:31.090Z,0.80
2022-08-22T15:44:15.054Z,1.00
2022-08-22T15:47:02.553Z,1.15
2022-08-22T15:49:35.890Z,0.80
2022-08-22T15:52:14.835Z,0.88
2022-08-22T15:55:19.004Z,1.10
2022-08-22T15:57:59.701Z,1.25
2022-08-22T16:00:36.384Z,0.93
2022-08-22T16:03:24.288Z,0.93
2022-08-22T16:05:56.026Z,1.27
2022-08-22T16:08:29.625Z,1.27
2022-08-22T16:11:27.477Z,1.05
2022-08-22T16:14:21.665Z,0.88
2022-08-22T16:16:58.235Z,0.98
2022-08-22T16:19:27.782Z,0.90
2022-08-22T16:22:16.356Z,1.58
2022-08-22T16:25:14.251Z,1.30
2022-08-22T16:27:55.197Z,0.80
2022-08-22T16:30:36.731Z,0.93
2022-08-22T16:33:08.773Z,0.80
2022-08-22T16:36:24.419Z,1.48
2022-08-22T16:38:56.491Z,1.05
2022-08-22T16:41:40.229Z,0.95
2022-08-22T16:44:41.588Z,0.90
2022-08-22T16:47:16.517Z,0.90
2022-08-22T16:50:03.413Z,0.85
2022-08-22T16:53:02.119Z,1.05
2022-08-22T16:56:12.279Z,1.00
2022-08-22T16:59:22.955Z,0.90
2022-08-22T17:02:12.752Z,0.70
2022-08-22T17:04:51.474Z,1.20
2022-08-22T17:07:34.550Z,1.35
2022-08-22T17:10:36.269Z,1.05
2022-08-22T17:13:15.478Z,1.40
2022-08-22T17:15:57.794Z,0.98
2022-08-22T17:18:43.836Z,0.90
2022-08-22T17:21:17.547Z,0.70
2022-08-22T17:23:57.709Z,0.88
2022-08-22T17:26:37.985Z,0.80
2022-08-22T17:29:16.370Z,1.02
2022-08-22T17:31:50.918Z,1.10
2022-08-22T17:34:32.291Z,1.15
2022-08-22T17:37:09.195Z,1.20
2022-08-22T17:40:04.943Z,0.90
2022-08-22T17:42:49.256Z,0.88
2022-08-22T17:45:27.540Z,0.88
2022-08-22T17:48:03.438Z,1.20
2022-08-22T17:50:39.328Z,0.90
2022-08-22T17:53:16.370Z,1.00
2022-08-22T17:56:01.407Z,1.20
2022-08-22T17:58:43.913Z,1.20
2022-08-22T18:01:15.172Z,1.20
2022-08-22T18:03:50.789Z,1.05
2022-08-22T18:06:23.660Z,1.12
2022-08-22T18:11:51.039Z,0.82
2022-08-22T18:14:29.550Z,1.02
2022-08-22T18:17:00.964Z,1.20
2022-08-22T18:19:40.978Z,0.95
2022-08-22T18:22:13.036Z,0.95
2022-08-22T18:24:47.387Z,1.20
2022-08-22T18:27:34.403Z,0.93
2022-08-22T18:30:16.091Z,1.17
2022-08-22T18:32:52.161Z,1.12
2022-08-22T18:35:26.092Z,1.10
2022-08-22T18:38:19.396Z,1.12
2022-08-22T18:40:55.006Z,0.80
2022-08-22T18:43:39.079Z,1.10
2022-08-22T18:46:33.731Z,1.10
2022-08-22T18:49:15.431Z,1.12
2022-08-22T18:51:44.444Z,1.30
2022-08-22T18:54:42.792Z,1.08
2022-08-22T18:57:31.564Z,1.33
2022-08-22T19:00:14.412Z,1.17
2022-08-22T19:03:03.569Z,1.30
2022-08-22T19:05:56.735Z,1.00
2022-08-22T19:08:44.399Z,1.40
2022-08-22T19:11:35.114Z,1.00
2022-08-22T19:14:35.573Z,1.08
2022-08-22T19:17:21.432Z,1.02
2022-08-22T19:20:24.822Z,1.37
2022-08-22T19:22:54.758Z,1.52
2022-08-22T19:25:26.411Z,1.10
2022-08-22T19:28:26.784Z,1.23
2022-08-22T19:31:22.355Z,1.17
2022-08-22T19:34:12.012Z,0.98
2022-08-22T19:36:41.354Z,1.45
2022-08-22T19:39:11.139Z,1.42
2022-08-22T19:41:52.834Z,1.25
2022-08-22T19:44:37.567Z,1.42
2022-08-22T19:47:26.839Z,1.12
2022-08-22T19:50:05.583Z,1.20
2022-08-22T19:52:45.862Z,1.12
2022-08-22T19:55:22.941Z,1.30
2022-08-22T19:58:03.958Z,1.15
2022-08-22T20:00:53.503Z,1.33
2022-08-22T20:03:42.016Z,1.20
2022-08-22T20:06:42.631Z,1.40
2022-08-22T20:09:21.632Z,1.60
2022-08-22T20:12:00.580Z,0.93
2022-08-22T20:14:31.455Z,1.30
2022-08-22T20:17:05.218Z,1.50
2022-08-22T20:19:40.039Z,1.60
2022-08-22T20:22:15.884Z,1.08
2022-08-22T20:24:49.070Z,1.30
2022-08-22T20:27:21.978Z,1.37
2022-08-22T20:29:55.426Z,1.37
2022-08-22T20:32:26.311Z,1.50
2022-08-22T20:34:58.955Z,1.30
2022-08-22T20:38:05.720Z,1.50
2022-08-22T20:40:54.982Z,1.40
2022-08-22T20:43:25.113Z,1.25
2022-08-22T20:46:12.408Z,1.48
2022-08-22T20:48:44.003Z,1.60
2022-08-22T20:51:18.025Z,1.27
2022-08-22T20:53:54.679Z,1.52
2022-08-22T20:56:34.338Z,1.50
2022-08-22T20:59:16.635Z,1.55
2022-08-22T21:01:46.052Z,1.80
2022-08-22T21:04:15.755Z,1.42
2022-08-22T21:06:43.643Z,1.45
2022-08-22T21:09:32.976Z,1.83
2022-08-22T21:12:02.732Z,1.80
2022-08-22T21:14:34.595Z,1.30
2022-08-22T21:17:19.147Z,1.30
2022-08-22T21:19:47.529Z,1.60
2022-08-22T21:22:17.198Z,1.50
2022-08-22T21:24:46.607Z,1.60
2022-08-22T21:27:25.988Z,1.60
2022-08-22T21:29:54.225Z,1.60
2022-08-22T21:32:28.271Z,1.10
2022-08-22T21:34:56.730Z,1.75
2022-08-22T21:37:35.743Z,1.85
2022-08-22T21:40:10.567Z,1.67
2022-08-22T21:42:45.997Z,1.92
2022-08-22T21:45:27.444Z,1.30
2022-08-22T21:47:55.792Z,1.85
2022-08-22T21:50:34.698Z,1.60
2022-08-22T21:53:10.101Z,1.48
2022-08-22T21:55:44.381Z,1.70
2022-08-22T21:58:35.106Z,2.08
2022-08-22T22:01:29.957Z,1.80
2022-08-22T22:03:58.912Z,1.45
2022-08-22T22:06:27.959Z,1.65
2022-08-22T22:08:56.001Z,1.67
2022-08-22T22:11:25.536Z,2.05
2022-08-22T22:13:54.339Z,1.83
2022-08-22T22:16:25.651Z,1.70
2022-08-22T22:18:53.905Z,1.60
2022-08-22T22:21:21.941Z,2.03
2022-08-22T22:23:50.625Z,1.60
2022-08-22T22:26:20.937Z,1.80
2022-08-22T22:28:51.123Z,2.10
2022-08-22T22:31:19.524Z,1.83
2022-08-22T22:33:47.444Z,1.77
2022-08-22T22:36:19.101Z,1.80
2022-08-22T22:38:48.222Z,1.77
2022-08-22T22:41:23.292Z,1.92
2022-08-22T22:43:53.311Z,2.17
2022-08-22T22:46:21.749Z,2.00
2022-08-22T22:48:49.914Z,1.95
2022-08-22T22:51:18.045Z,1.65
2022-08-22T22:53:46.796Z,1.87
2022-08-22T22:56:18.142Z,1.98
2022-08-22T22:58:50.648Z,2.42
2022-08-22T23:01:59.683Z,2.12
2022-08-22T23:04:28.222Z,2.20
2022-08-22T23:06:56.210Z,2.10
2022-08-22T23:09:38.013Z,1.62
2022-08-22T23:12:08.318Z,1.85
2022-08-22T23:14:36.794Z,2.10
2022-08-22T23:17:06.242Z,1.80
2022-08-22T23:19:35.551Z,1.60
2022-08-22T23:22:03.549Z,2.10
2022-08-22T23:24:37.152Z,2.17
2022-08-22T23:27:06.906Z,2.42
2022-08-22T23:29:35.395Z,2.60
2022-08-22T23:32:06.206Z,2.60
2022-08-22T23:34:37.578Z,2.55
2022-08-22T23:37:08.229Z,2.17
2022-08-22T23:39:38.150Z,2.40
2022-08-22T23:42:07.666Z,2.17
2022-08-22T23:44:37.581Z,2.35
2022-08-22T23:47:09.647Z,2.50
2022-08-22T23:49:39.052Z,2.60
2022-08-22T23:52:09.032Z,2.30
2022-08-22T23:54:37.279Z,2.45
2022-08-22T23:57:11.841Z,2.05
2022-08-22T23:59:47.877Z,2.45
